createdAt,value
2022-11-14T00:02:33.196Z,102043.13
2022-11-14T00:05:42.303Z,102048.34
2022-11-14T00:08:45.923Z,102051.84
2022-11-14T00:11:49.509Z,102044.88
2022-11-14T00:14:55.891Z,102052.69
2022-11-14T00:17:59.527Z,102048.38
2022-11-14T00:21:03.409Z,102049.22
2022-11-14T00:24:07.358Z,102049.25
2022-11-14T00:27:11.023Z,102054.44
2022-11-14T00:30:16.756Z,102044.00
2022-11-14T00:33:21.772Z,102046.63
2022-11-14T00:36:25.346Z,102037.94
2022-11-14T00:39:28.990Z,102039.66
2022-11-14T00:42:32.661Z,102029.25
2022-11-14T00:45:37.635Z,102017.94
2022-11-14T00:48:41.246Z,102013.59
2022-11-14T00:51:44.921Z,102010.13
2022-11-14T00:54:48.437Z,102013.56
2022-11-14T00:57:52.117Z,102018.78
2022-11-14T01:00:57.170Z,102022.28
2022-11-14T01:04:00.885Z,102024.91
2022-11-14T01:07:04.578Z,102022.28
2022-11-14T01:10:10.190Z,102017.09
2022-11-14T01:13:14.762Z,102008.38
2022-11-14T01:16:20.255Z,102007.50
2022-11-14T01:19:23.830Z,101999.69
2022-11-14T01:22:27.497Z,101999.69
2022-11-14T01:25:31.090Z,101996.19
2022-11-14T01:28:34.899Z,101995.34
2022-11-14T01:31:39.805Z,101992.72
2022-11-14T01:34:43.486Z,101984.91
2022-11-14T01:37:47.076Z,101977.94
2022-11-14T01:40:50.635Z,101976.19
2022-11-14T01:43:54.231Z,101977.09
2022-11-14T01:46:59.486Z,101970.13
2022-11-14T01:50:07.111Z,101965.78
2022-11-14T01:53:10.686Z,101973.59
2022-11-14T01:56:20.471Z,101961.41
2022-11-14T01:59:32.324Z,101956.22
2022-11-14T02:02:39.635Z,101952.75
2022-11-14T02:05:45.557Z,101951.00
2022-11-14T02:08:52.264Z,101944.94
2022-11-14T02:12:00.535Z,101929.28
2022-11-14T02:15:05.065Z,101942.31
2022-11-14T02:18:10.070Z,101929.28
2022-11-14T02:21:15.127Z,101927.56
2022-11-14T02:24:18.810Z,101919.72
2022-11-14T02:27:22.609Z,101917.97
2022-11-14T02:30:26.671Z,101900.56
2022-11-14T02:33:30.263Z,101896.22
2022-11-14T02:36:35.263Z,101904.91
2022-11-14T02:39:39.119Z,101891.03
2022-11-14T02:42:42.750Z,101897.97
2022-11-14T02:45:46.293Z,101885.81
2022-11-14T02:48:49.921Z,101880.56
2022-11-14T02:51:54.838Z,101877.97
2022-11-14T02:54:58.435Z,101873.66
2022-11-14T02:58:02.074Z,101870.16
2022-11-14T03:01:20.322Z,101867.56
2022-11-14T03:04:24.954Z,101865.84
2022-11-14T03:07:29.964Z,101856.25
2022-11-14T03:10:33.609Z,101854.53
2022-11-14T03:13:38.164Z,101840.63
2022-11-14T03:16:41.815Z,101842.38
2022-11-14T03:19:45.345Z,101842.38
2022-11-14T03:22:50.370Z,101844.09
2022-11-14T03:25:53.911Z,101842.34
2022-11-14T03:28:57.504Z,101833.69
2022-11-14T03:32:01.069Z,101837.16
2022-11-14T03:35:05.099Z,101840.63
2022-11-14T03:38:10.045Z,101833.69
2022-11-14T03:41:13.717Z,101835.44
2022-11-14T03:44:17.289Z,101838.03
2022-11-14T03:47:21.059Z,101835.44
2022-11-14T03:50:24.676Z,101818.06
2022-11-14T03:53:29.699Z,101825.00
2022-11-14T03:56:33.207Z,101832.84
2022-11-14T03:59:36.825Z,101825.00
2022-11-14T04:02:40.438Z,101825.00
2022-11-14T04:05:46.317Z,101812.84
2022-11-14T04:08:51.900Z,101813.72
2022-11-14T04:11:55.596Z,101805.91
2022-11-14T04:14:59.528Z,101804.16
2022-11-14T04:18:03.084Z,101794.63
2022-11-14T04:21:07.225Z,101794.63
2022-11-14T04:24:12.262Z,101797.19
2022-11-14T04:27:16.000Z,101802.41
2022-11-14T04:30:19.827Z,101793.75
2022-11-14T04:33:23.395Z,101801.56
2022-11-14T04:36:27.050Z,101798.94
2022-11-14T04:39:32.009Z,101786.81
2022-11-14T04:42:35.582Z,101791.16
2022-11-14T04:45:39.074Z,101785.91
2022-11-14T04:48:42.733Z,101783.31
2022-11-14T04:51:46.413Z,101780.72
2022-11-14T04:54:51.319Z,101777.25
2022-11-14T04:57:59.749Z,101778.97
2022-11-14T05:01:09.786Z,101774.66
2022-11-14T05:04:13.405Z,101772.03
2022-11-14T05:07:17.246Z,101765.09
2022-11-14T05:10:22.219Z,101759.00
2022-11-14T05:13:26.088Z,101757.28
2022-11-14T05:16:29.647Z,101749.47
2022-11-14T05:19:33.276Z,101748.59
2022-11-14T05:22:36.882Z,101746.88
2022-11-14T05:25:41.890Z,101746.88
2022-11-14T05:28:48.274Z,101746.88
2022-11-14T05:31:51.869Z,101748.59
2022-11-14T05:34:55.409Z,101752.06
2022-11-14T05:38:01.848Z,101749.47
2022-11-14T05:41:09.855Z,101751.22
2022-11-14T05:44:13.511Z,101746.88
2022-11-14T05:47:17.093Z,101746.88
2022-11-14T05:50:20.896Z,101740.81
2022-11-14T05:53:28.823Z,101740.78
2022-11-14T05:56:33.882Z,101732.09
2022-11-14T05:59:37.613Z,101729.50
2022-11-14T06:02:41.296Z,101732.09
2022-11-14T06:05:45.003Z,101726.03
2022-11-14T06:08:49.386Z,101730.38
2022-11-14T06:11:54.559Z,101730.38
2022-11-14T06:14:58.208Z,101714.75
2022-11-14T06:18:01.814Z,101727.78
2022-11-14T06:21:08.282Z,101722.56
2022-11-14T06:24:11.940Z,101724.31
2022-11-14T06:27:16.962Z,101730.38
2022-11-14T06:30:28.031Z,101727.75
2022-11-14T06:33:36.059Z,101717.34
2022-11-14T06:36:40.053Z,101713.00
2022-11-14T06:39:43.966Z,101713.88
2022-11-14T06:42:48.919Z,101722.56
2022-11-14T06:45:55.846Z,101720.84
2022-11-14T06:49:00.706Z,101719.06
2022-11-14T06:52:04.483Z,101730.38
2022-11-14T06:55:09.212Z,101727.75
2022-11-14T06:58:14.152Z,101733.84
2022-11-14T07:01:20.418Z,101738.19
2022-11-14T07:04:24.128Z,101738.19
2022-11-14T07:07:28.940Z,101744.28
2022-11-14T07:10:32.609Z,101739.06
2022-11-14T07:13:39.086Z,101732.09
2022-11-14T07:16:42.895Z,101739.03
2022-11-14T07:19:46.522Z,101741.66
2022-11-14T07:22:50.178Z,101743.38
2022-11-14T07:25:53.732Z,101744.25
2022-11-14T07:29:02.563Z,101746.00
2022-11-14T07:32:07.293Z,101747.72
2022-11-14T07:35:11.041Z,101743.38
2022-11-14T07:38:14.819Z,101738.16
2022-11-14T07:41:19.117Z,101740.78
2022-11-14T07:44:24.129Z,101732.97
2022-11-14T07:47:28.726Z,101729.50
2022-11-14T07:50:32.281Z,101726.91
2022-11-14T07:53:36.469Z,101734.72
2022-11-14T07:56:40.059Z,101733.00
2022-11-14T07:59:45.246Z,101726.03
2022-11-14T08:02:52.176Z,101723.41
2022-11-14T08:06:02.710Z,101725.13
2022-11-14T08:09:06.457Z,101710.38
2022-11-14T08:12:10.213Z,101707.75
2022-11-14T08:15:16.167Z,101702.53
2022-11-14T08:18:20.260Z,101700.78
2022-11-14T08:21:23.881Z,101714.69
2022-11-14T08:24:27.490Z,101707.72
2022-11-14T08:27:31.098Z,101703.38
2022-11-14T08:30:36.718Z,101699.00
2022-11-14T08:33:41.203Z,101688.59
2022-11-14T08:36:44.754Z,101703.34
2022-11-14T08:39:48.490Z,101704.22
2022-11-14T08:42:52.614Z,101693.78
2022-11-14T08:46:01.971Z,101686.84
2022-11-14T08:49:05.861Z,101685.97
2022-11-14T08:52:13.781Z,101687.66
2022-11-14T08:55:20.834Z,101692.06
2022-11-14T08:58:24.471Z,101680.75
2022-11-14T09:01:29.357Z,101676.44
2022-11-14T09:04:32.940Z,101682.50
2022-11-14T09:07:36.761Z,101683.38
2022-11-14T09:10:40.367Z,101685.97
2022-11-14T09:13:43.939Z,101696.41
2022-11-14T09:16:50.597Z,101685.09
2022-11-14T09:19:54.200Z,101686.84
2022-11-14T09:23:00.459Z,101674.69
2022-11-14T09:26:06.442Z,101684.22
2022-11-14T09:29:10.062Z,101692.94
2022-11-14T09:32:15.187Z,101686.84
2022-11-14T09:35:19.282Z,101683.34
2022-11-14T09:38:22.840Z,101682.50
2022-11-14T09:41:33.859Z,101685.97
2022-11-14T09:44:57.772Z,101678.13
2022-11-14T09:48:10.709Z,101674.63
2022-11-14T09:51:20.731Z,101683.38
2022-11-14T09:54:28.758Z,101678.16
2022-11-14T09:57:32.726Z,101676.34
2022-11-14T10:00:49.786Z,101678.13
2022-11-14T10:04:09.365Z,101676.31
2022-11-14T10:07:29.376Z,101666.75
2022-11-14T10:10:51.730Z,101663.22
2022-11-14T10:14:22.714Z,101673.72
2022-11-14T10:17:52.155Z,101663.34
2022-11-14T10:21:10.912Z,101653.78
2022-11-14T10:24:42.063Z,101650.31
2022-11-14T10:28:05.436Z,101640.69
2022-11-14T10:31:26.683Z,101633.81
2022-11-14T10:34:39.130Z,101635.50
2022-11-14T10:37:59.551Z,101632.88
2022-11-14T10:41:07.816Z,101622.38
2022-11-14T10:44:19.786Z,101617.19
2022-11-14T10:47:26.714Z,101618.09
2022-11-14T10:50:44.056Z,101617.19
2022-11-14T10:53:59.551Z,101602.38
2022-11-14T10:57:04.048Z,101606.75
2022-11-14T11:00:14.197Z,101607.63
2022-11-14T11:03:17.810Z,101598.09
2022-11-14T11:06:28.828Z,101592.00
2022-11-14T11:09:52.515Z,101579.84
2022-11-14T11:12:56.345Z,101563.44
2022-11-14T11:16:03.412Z,101573.84
2022-11-14T11:19:24.953Z,101576.47
2022-11-14T11:22:36.502Z,101571.22
2022-11-14T11:25:41.794Z,101566.84
2022-11-14T11:28:45.420Z,101569.44
2022-11-14T11:31:55.325Z,101581.63
2022-11-14T11:35:02.553Z,101579.03
2022-11-14T11:38:10.088Z,101579.84
2022-11-14T11:42:06.243Z,101558.22
2022-11-14T11:44:58.714Z,101557.31
2022-11-14T11:48:15.112Z,101552.09
2022-11-14T11:51:25.660Z,101565.06
2022-11-14T11:54:45.385Z,101561.53
2022-11-14T11:58:03.762Z,101552.78
2022-11-14T12:01:10.828Z,101565.94
2022-11-14T12:04:14.623Z,101559.78
2022-11-14T12:07:23.341Z,101548.50
2022-11-14T12:10:34.048Z,101553.84
2022-11-14T12:14:17.818Z,101542.47
2022-11-14T12:18:18.475Z,101548.59
2022-11-14T12:21:58.951Z,101546.06
2022-11-14T12:25:47.508Z,101544.25
2022-11-14T12:29:22.659Z,101541.63
2022-11-14T12:32:36.539Z,101533.81
2022-11-14T12:35:52.987Z,101536.28
2022-11-14T12:38:57.895Z,101531.94
2022-11-14T12:42:07.747Z,101525.78
2022-11-14T12:46:01.526Z,101522.34
2022-11-14T12:49:38.712Z,101525.75
2022-11-14T12:52:54.092Z,101516.28
2022-11-14T12:56:19.438Z,101517.03
2022-11-14T12:59:56.371Z,101501.22
2022-11-14T13:03:37.866Z,101490.94
2022-11-14T13:07:01.820Z,101515.34
2022-11-14T13:10:15.678Z,101515.34
2022-11-14T13:13:36.911Z,101520.59
2022-11-14T13:16:58.079Z,101512.72
2022-11-14T13:20:41.087Z,101506.66
2022-11-14T13:24:02.963Z,101498.88
2022-11-14T13:27:45.555Z,101494.47
2022-11-14T13:31:20.770Z,101493.59
2022-11-14T13:34:48.278Z,101484.06
2022-11-14T13:38:18.406Z,101476.94
2022-11-14T13:42:23.489Z,101465.59
2022-11-14T13:45:58.332Z,101456.88
2022-11-14T13:49:29.120Z,101450.81
2022-11-14T13:52:36.714Z,101446.34
2022-11-14T13:56:01.282Z,101446.41
2022-11-14T13:59:49.549Z,101433.38
2022-11-14T14:03:26.045Z,101433.38
2022-11-14T14:06:48.285Z,101420.28
2022-11-14T14:10:09.650Z,101424.59
2022-11-14T14:13:33.718Z,101415.06
2022-11-14T14:16:46.854Z,101425.44
2022-11-14T14:20:10.353Z,101425.50
2022-11-14T14:23:36.009Z,101423.72
2022-11-14T14:26:59.751Z,101422.03
2022-11-14T14:30:11.460Z,101423.84
2022-11-14T14:33:17.883Z,101426.50
2022-11-14T14:36:26.042Z,101426.50
2022-11-14T14:39:30.630Z,101421.34
2022-11-14T14:42:41.021Z,101426.59
2022-11-14T14:45:54.086Z,101423.13
2022-11-14T14:49:00.339Z,101414.50
2022-11-14T14:52:20.907Z,101420.63
2022-11-14T14:55:28.351Z,101406.69
2022-11-14T14:58:34.915Z,101403.28
2022-11-14T15:01:40.436Z,101407.63
2022-11-14T15:04:44.273Z,101400.72
2022-11-14T15:07:49.522Z,101400.78
2022-11-14T15:10:56.287Z,101400.81
2022-11-14T15:14:01.854Z,101407.78
2022-11-14T15:17:08.830Z,101405.25
2022-11-14T15:20:25.025Z,101404.44
2022-11-14T15:23:28.634Z,101411.44
2022-11-14T15:26:33.162Z,101395.78
2022-11-14T15:29:37.010Z,101403.66
2022-11-14T15:32:51.785Z,101394.97
2022-11-14T15:36:12.901Z,101393.28
2022-11-14T15:39:29.760Z,101392.47
2022-11-14T15:42:33.335Z,101395.97
2022-11-14T15:45:43.792Z,101394.25
2022-11-14T15:48:48.875Z,101388.22
2022-11-14T15:51:56.751Z,101391.69
2022-11-14T15:55:00.495Z,101388.25
2022-11-14T15:58:27.114Z,101390.00
2022-11-14T16:01:28.824Z,101390.03
2022-11-14T16:04:39.775Z,101393.56
2022-11-14T16:07:46.955Z,101389.22
2022-11-14T16:10:50.817Z,101378.81
2022-11-14T16:13:54.524Z,101369.25
2022-11-14T16:16:58.100Z,101370.19
2022-11-14T16:20:06.282Z,101365.00
2022-11-14T16:23:14.737Z,101354.53
2022-11-14T16:26:18.508Z,101357.16
2022-11-14T16:29:22.231Z,101346.75
2022-11-14T16:32:28.321Z,101353.66
2022-11-14T16:35:33.441Z,101362.41
2022-11-14T16:38:37.143Z,101363.28
2022-11-14T16:41:40.808Z,101362.47
2022-11-14T16:44:49.380Z,101354.63
2022-11-14T16:47:54.583Z,101354.66
2022-11-14T16:51:14.780Z,101347.69
2022-11-14T16:54:20.229Z,101351.19
2022-11-14T16:57:24.410Z,101354.66
2022-11-14T17:00:27.992Z,101351.16
2022-11-14T17:03:33.765Z,101343.34
2022-11-14T17:06:39.852Z,101348.56
2022-11-14T17:09:43.770Z,101352.91
2022-11-14T17:12:47.526Z,101353.81
2022-11-14T17:15:51.127Z,101345.13
2022-11-14T17:18:55.823Z,101355.59
2022-11-14T17:22:00.840Z,101351.28
2022-11-14T17:25:04.601Z,101344.38
2022-11-14T17:28:08.158Z,101343.53
2022-11-14T17:31:12.382Z,101340.94
2022-11-14T17:34:16.090Z,101347.00
2022-11-14T17:37:21.046Z,101332.34
2022-11-14T17:40:24.674Z,101328.88
2022-11-14T17:43:30.976Z,101325.41
2022-11-14T17:46:36.607Z,101315.88
2022-11-14T17:49:40.914Z,101321.13
2022-11-14T17:52:46.065Z,101330.66
2022-11-14T17:55:57.211Z,101323.72
2022-11-14T17:59:00.961Z,101322.88
2022-11-14T18:02:04.743Z,101323.75
2022-11-14T18:05:09.074Z,101323.75
2022-11-14T18:08:14.989Z,101325.50
2022-11-14T18:11:20.558Z,101324.66
2022-11-14T18:14:24.212Z,101317.75
2022-11-14T18:17:28.795Z,101312.56
2022-11-14T18:20:32.785Z,101309.06
2022-11-14T18:23:38.769Z,101304.78
2022-11-14T18:26:42.644Z,101298.69
2022-11-14T18:29:46.317Z,101296.06
2022-11-14T18:32:49.991Z,101296.09
2022-11-14T18:35:58.392Z,101294.38
2022-11-14T18:39:03.733Z,101300.44
2022-11-14T18:42:07.309Z,101298.69
2022-11-14T18:45:11.507Z,101297.84
2022-11-14T18:48:15.088Z,101296.13
2022-11-14T18:51:21.492Z,101287.47
2022-11-14T18:54:26.471Z,101283.16
2022-11-14T18:57:30.105Z,101280.56
2022-11-14T19:00:33.760Z,101277.94
2022-11-14T19:03:37.528Z,101277.09
2022-11-14T19:06:42.199Z,101269.34
2022-11-14T19:09:47.310Z,101265.84
2022-11-14T19:12:50.864Z,101270.16
2022-11-14T19:15:54.474Z,101264.13
2022-11-14T19:18:58.015Z,101260.63
2022-11-14T19:22:01.644Z,101258.03
2022-11-14T19:25:07.807Z,101257.19
2022-11-14T19:28:11.610Z,101251.13
2022-11-14T19:31:15.937Z,101235.50
2022-11-14T19:34:19.607Z,101247.63
2022-11-14T19:37:23.305Z,101245.00
2022-11-14T19:40:29.973Z,101225.94
2022-11-14T19:43:33.735Z,101228.50
2022-11-14T19:46:37.422Z,101229.34
2022-11-14T19:49:41.085Z,101237.16
2022-11-14T19:52:44.621Z,101229.34
2022-11-14T19:55:49.747Z,101231.91
2022-11-14T19:58:56.313Z,101228.47
2022-11-14T20:01:59.957Z,101212.03
2022-11-14T20:05:03.947Z,101209.44
2022-11-14T20:08:07.938Z,101201.63
2022-11-14T20:11:13.251Z,101199.88
2022-11-14T20:14:17.372Z,101198.97
2022-11-14T20:17:21.080Z,101197.22
2022-11-14T20:20:24.866Z,101195.41
2022-11-14T20:23:28.802Z,101191.13
2022-11-14T20:26:34.092Z,101204.13
2022-11-14T20:29:37.697Z,101188.56
2022-11-14T20:32:41.358Z,101190.34
2022-11-14T20:35:45.741Z,101183.44
2022-11-14T20:38:50.356Z,101182.53
2022-11-14T20:41:55.389Z,101179.09
2022-11-14T20:44:59.128Z,101182.56
2022-11-14T20:48:02.812Z,101172.16
2022-11-14T20:51:09.509Z,101173.03
2022-11-14T20:54:13.386Z,101169.59
2022-11-14T20:57:18.471Z,101164.38
2022-11-14T21:00:22.249Z,101163.50
2022-11-14T21:03:26.717Z,101167.81
2022-11-14T21:06:30.451Z,101159.13
2022-11-14T21:09:34.078Z,101160.81
2022-11-14T21:12:39.273Z,101163.38
2022-11-14T21:15:42.794Z,101150.31
2022-11-14T21:18:48.311Z,101148.53
2022-11-14T21:21:52.053Z,101133.78
2022-11-14T21:24:55.561Z,101133.72
2022-11-14T21:28:00.557Z,101129.28
2022-11-14T21:31:14.270Z,101127.53
2022-11-14T21:34:18.611Z,101126.63
2022-11-14T21:37:22.219Z,101117.03
2022-11-14T21:40:25.844Z,101117.03
2022-11-14T21:43:31.402Z,101112.72
2022-11-14T21:46:35.213Z,101108.38
2022-11-14T21:49:38.764Z,101109.31
2022-11-14T21:52:42.275Z,101106.72
2022-11-14T21:55:46.796Z,101107.59
2022-11-14T21:59:12.825Z,101104.13
2022-11-14T22:02:33.904Z,101099.75
2022-11-14T22:05:37.454Z,101108.41
2022-11-14T22:08:41.053Z,101097.97
2022-11-14T22:11:44.629Z,101099.66
2022-11-14T22:14:49.711Z,101100.41
2022-11-14T22:17:53.320Z,101100.31
2022-11-14T22:20:59.608Z,101103.72
2022-11-14T22:24:03.290Z,101100.22
2022-11-14T22:27:06.976Z,101103.59
2022-11-14T22:30:13.958Z,101094.78
2022-11-14T22:33:17.551Z,101106.06
2022-11-14T22:36:23.830Z,101094.75
2022-11-14T22:39:27.470Z,101095.59
2022-11-14T22:42:31.060Z,101089.50
2022-11-14T22:45:42.314Z,101087.69
2022-11-14T22:48:47.856Z,101088.41
2022-11-14T22:51:51.441Z,101088.31
2022-11-14T22:54:54.979Z,101078.66
2022-11-14T22:58:00.290Z,101074.31
2022-11-14T23:01:13.846Z,101076.81
2022-11-14T23:04:18.137Z,101075.72
2022-11-14T23:07:21.734Z,101069.59
2022-11-14T23:10:25.322Z,101065.25
2022-11-14T23:13:29.081Z,101064.25
2022-11-14T23:16:35.226Z,101060.78
2022-11-14T23:19:38.862Z,101063.38
2022-11-14T23:22:42.390Z,101064.28
2022-11-14T23:25:46.014Z,101065.09
2022-11-14T23:28:50.574Z,101065.25
2022-11-14T23:31:55.509Z,101067.81
2022-11-14T23:34:59.041Z,101058.28
2022-11-14T23:38:05.700Z,101065.44
2022-11-14T23:41:15.556Z,101061.00
2022-11-14T23:44:19.098Z,101055.88
2022-11-14T23:47:24.051Z,101054.84
2022-11-14T23:50:27.558Z,101062.69
2022-11-14T23:53:32.283Z,101061.84
2022-11-14T23:56:36.053Z,101059.19
2022-11-14T23:59:39.611Z,101055.03
